Time;durP1;ratioP1;P1;durP2;ratioP2;P2;SDS_P1;SDS_P2;PMS_P1;PMS_P2;Temp;Humidity;BMP_temperature;BMP_pressure;BME280_temperature;BME280_humidity;BME280_pressure;Samples;Min_cycle;Max_cycle;Signal;HPM_P1;HPM_P2
2021/10/28 00:12:14;;;;;;;3.75;2.65;;;;;;;13.96;51.94;100675.78;5014781;28;20061;-73
2021/10/28 00:14:42;;;;;;;4.13;2.95;;;;;;;13.86;52.63;100677.22;5013780;28;20022;-73
2021/10/28 00:17:16;;;;;;;3.28;2.95;;;;;;;13.87;52.30;100681.63;5012797;28;20040;-73
2021/10/28 00:19:43;;;;;;;4.00;2.65;;;;;;;13.80;52.81;100689.09;5014691;28;20364;-73
2021/10/28 00:22:28;;;;;;;4.32;3.10;;;;;;;13.79;53.07;100695.84;5014125;28;20503;-73
2021/10/28 00:24:56;;;;;;;3.13;2.83;;;;;;;13.91;52.26;100683.69;5013064;28;20018;-73
2021/10/28 00:27:25;;;;;;;3.58;2.92;;;;;;;13.86;53.70;100690.38;5013708;28;20034;-73
2021/10/28 00:30:05;;;;;;;4.65;2.72;;;;;;;13.83;52.82;100688.31;5012950;28;20026;-73
2021/10/28 00:32:36;;;;;;;2.72;2.53;;;;;;;13.84;52.90;100692.72;5012663;28;20034;-73
2021/10/28 00:35:22;;;;;;;3.08;2.78;;;;;;;13.85;53.09;100692.38;5012561;28;20484;-73
2021/10/28 00:37:49;;;;;;;3.22;2.45;;;;;;;13.74;53.41;100691.38;5012611;28;20038;-72
2021/10/28 00:40:17;;;;;;;3.58;2.55;;;;;;;13.82;53.17;100695.09;5012471;28;20034;-74
2021/10/28 00:42:45;;;;;;;3.92;2.80;;;;;;;13.86;53.52;100693.19;5012466;28;20048;-73
2021/10/28 00:45:12;;;;;;;6.05;2.85;;;;;;;13.91;53.13;100690.09;5013167;28;20052;-73
2021/10/28 00:47:40;;;;;;;4.00;2.55;;;;;;;13.78;52.99;100677.44;4996764;28;20389;-73
2021/10/28 00:50:06;;;;;;;2.58;2.10;;;;;;;13.67;53.52;100656.88;5012355;28;20448;-73
2021/10/28 00:52:38;;;;;;;3.15;2.65;;;;;;;13.86;53.27;100679.19;5012483;28;20026;-72
2021/10/28 00:55:05;;;;;;;3.75;3.08;;;;;;;13.87;53.56;100686.41;5012985;28;20026;-73
2021/10/28 00:57:39;;;;;;;6.47;2.40;;;;;;;13.85;53.02;100672.81;5012370;28;20042;-72
2021/10/28 01:00:11;;;;;;;3.05;2.72;;;;;;;13.89;53.04;100676.44;5013330;28;20372;-73
2021/10/28 01:02:39;;;;;;;3.72;2.88;;;;;;;13.81;53.94;100671.13;5012152;28;20504;-73
2021/10/28 01:05:06;;;;;;;4.03;2.83;;;;;;;13.78;53.56;100677.44;5012859;28;20018;-73
2021/10/28 01:07:54;;;;;;;3.60;2.67;;;;;;;13.72;53.72;100673.34;5014149;28;20034;-73
2021/10/28 01:10:20;;;;;;;2.95;2.30;;;;;;;13.75;54.35;100675.41;5012341;28;20022;-73
2021/10/28 01:13:06;;;;;;;4.20;2.15;;;;;;;13.73;54.22;100677.75;5013942;28;20037;-73
2021/10/28 01:15:34;;;;;;;3.65;2.72;;;;;;;13.75;54.49;100683.81;5015805;28;20030;-73
2021/10/28 01:18:07;;;;;;;3.05;2.70;;;;;;;13.76;54.25;100685.41;5015765;28;20045;-72
2021/10/28 01:20:33;;;;;;;3.40;3.08;;;;;;;13.63;54.71;100679.16;5015840;28;20030;-73
2021/10/28 01:23:02;;;;;;;3.67;2.70;;;;;;;13.58;55.38;100676.69;5015637;28;20061;-73
2021/10/28 01:25:30;;;;;;;2.97;2.55;;;;;;;13.58;55.89;100677.50;5012908;28;20111;-72
2021/10/28 01:28:02;;;;;;;3.95;2.40;;;;;;;13.62;56.20;100674.75;5016096;28;20461;-72
2021/10/28 01:30:31;;;;;;;2.65;2.42;;;;;;;13.68;54.98;100672.47;5016143;28;20033;-72
2021/10/28 01:32:57;;;;;;;2.70;2.30;;;;;;;13.58;55.48;100674.72;5015617;28;20037;-72
2021/10/28 01:35:26;;;;;;;4.75;2.75;;;;;;;13.63;55.22;100671.63;5015429;28;20029;-72
2021/10/28 01:37:57;;;;;;;2.90;2.40;;;;;;;13.62;55.05;100667.19;5016186;28;20456;-72
2021/10/28 01:40:26;;;;;;;3.15;2.88;;;;;;;13.63;54.50;100660.44;5015372;28;20030;-73
2021/10/28 01:42:57;;;;;;;4.10;2.80;;;;;;;13.57;55.20;100661.91;5015452;28;20084;-73
2021/10/28 01:45:28;;;;;;;2.22;2.05;;;;;;;13.61;54.81;100668.38;5015443;28;20037;-72
2021/10/28 01:48:00;;;;;;;5.88;2.70;;;;;;;13.56;55.26;100657.50;5016855;28;20045;-72
2021/10/28 01:50:28;;;;;;;8.18;2.70;;;;;;;13.61;54.96;100657.19;5017275;28;20029;-72
2021/10/28 01:52:58;;;;;;;3.45;2.28;;;;;;;13.53;55.18;100655.47;5015749;28;20033;-72
2021/10/28 01:55:27;;;;;;;2.78;2.45;;;;;;;13.58;54.98;100657.94;5015238;28;20036;-72
2021/10/28 01:57:53;;;;;;;4.53;2.88;;;;;;;13.62;55.10;100656.00;5015903;28;20469;-72
2021/10/28 02:00:25;;;;;;;3.85;2.63;;;;;;;13.50;55.66;100650.59;5015146;28;20125;-73
2021/10/28 02:02:55;;;;;;;3.08;2.22;;;;;;;13.53;55.46;100649.88;5014626;28;20137;-72
2021/10/28 02:05:26;;;;;;;2.45;2.25;;;;;;;13.52;55.67;100653.00;5014845;28;20033;-72
2021/10/28 02:07:55;;;;;;;4.45;2.83;;;;;;;13.46;55.64;100655.31;5015149;28;20034;-72
2021/10/28 02:10:29;;;;;;;5.47;2.50;;;;;;;13.45;56.38;100647.28;5015482;28;20482;-72
2021/10/28 02:12:57;;;;;;;2.95;2.70;;;;;;;13.29;56.35;100645.41;5015334;28;20037;-73
2021/10/28 02:15:26;;;;;;;3.40;3.10;;;;;;;13.38;56.64;100641.59;5014752;28;20036;-72
2021/10/28 02:17:52;;;;;;;4.80;3.08;;;;;;;13.44;56.32;100649.28;5014842;28;20041;-72
2021/10/28 02:20:19;;;;;;;3.22;2.40;;;;;;;13.28;57.48;100648.59;5014545;28;20029;-72
2021/10/28 02:22:46;;;;;;;3.42;2.53;;;;;;;13.30;57.60;100641.44;5014533;28;20145;-72
2021/10/28 02:25:12;;;;;;;3.00;2.80;;;;;;;13.30;56.95;100641.44;5014421;28;20030;-73
2021/10/28 02:27:38;;;;;;;4.95;2.40;;;;;;;13.38;56.88;100636.81;5015034;28;20371;-73
2021/10/28 02:30:14;;;;;;;4.25;2.97;;;;;;;13.32;57.03;100638.28;5014991;28;20128;-72
2021/10/28 02:32:41;;;;;;;3.78;2.65;;;;;;;13.28;57.49;100627.03;5014393;28;20034;-72
2021/10/28 02:35:15;;;;;;;3.38;2.88;;;;;;;13.30;57.24;100629.44;5014343;28;20084;-72
2021/10/28 02:37:46;;;;;;;4.38;2.70;;;;;;;13.28;57.78;100635.41;5014182;28;20472;-72
2021/10/28 02:40:13;;;;;;;4.45;3.05;;;;;;;13.27;57.55;100630.22;5014286;28;20121;-72
2021/10/28 02:42:42;;;;;;;4.25;3.72;;;;;;;13.25;58.10;100626.94;5014744;28;20387;-72
2021/10/28 02:45:11;;;;;;;5.10;2.92;;;;;;;13.28;57.34;100626.22;5014122;28;20025;-72
2021/10/28 02:47:45;;;;;;;5.18;3.00;;;;;;;13.28;57.59;100631.81;5014715;28;20496;-72
2021/10/28 02:50:13;;;;;;;2.80;2.60;;;;;;;13.31;57.41;100636.66;5014100;28;20030;-72
2021/10/28 02:53:02;;;;;;;2.72;2.53;;;;;;;13.27;58.08;100633.00;5014505;28;20404;-72
2021/10/28 02:55:31;;;;;;;3.65;2.90;;;;;;;13.21;58.09;100628.84;5014611;28;20441;-72
2021/10/28 02:58:04;;;;;;;2.80;2.60;;;;;;;13.22;58.21;100633.31;5015536;28;20041;-72
2021/10/28 03:00:30;;;;;;;4.28;2.55;;;;;;;13.16;58.02;100620.78;5013755;28;20029;-72
2021/10/28 03:02:59;;;;;;;4.53;2.50;;;;;;;13.17;58.34;100620.41;5013467;28;20085;-72
2021/10/28 03:05:27;;;;;;;3.15;2.35;;;;;;;13.10;58.54;100618.28;5013727;28;20054;-72
2021/10/28 03:08:00;;;;;;;5.55;2.80;;;;;;;13.08;59.04;100620.63;5015339;28;20038;-72
2021/10/28 03:10:26;;;;;;;3.03;2.63;;;;;;;13.14;58.32;100625.91;5013824;28;20117;-72
2021/10/28 03:12:55;;;;;;;4.35;2.80;;;;;;;13.10;58.67;100618.28;5014760;28;20338;-73
2021/10/28 03:15:32;;;;;;;3.30;2.40;;;;;;;13.14;58.77;100611.94;5013734;28;20125;-72
2021/10/28 03:26:35;;;;;;;;;;;;;;;12.96;59.17;100609.63;5016732;28;20541;-73
2021/10/28 03:29:03;;;;;;;2.83;2.60;;;;;;;13.04;59.00;100616.94;5013958;28;19917;-72
2021/10/28 03:31:37;;;;;;;3.58;2.75;;;;;;;13.09;59.13;100613.84;5013764;28;20539;-72
2021/10/28 03:34:03;;;;;;;3.28;2.83;;;;;;;13.02;59.47;100612.91;5013611;28;20042;-72
2021/10/28 03:47:26;;;;;;;4.15;2.97;;;;;;;13.02;59.93;100622.09;4995025;28;20052;-72
2021/10/28 04:31:02;;;;;;;3.95;3.33;;;;;;;12.87;61.48;100617.41;5014361;28;20384;-72
2021/10/28 04:33:28;;;;;;;3.30;2.88;;;;;;;12.87;61.62;100617.41;5013901;28;20022;-71
2021/10/28 04:36:17;;;;;;;3.88;3.03;;;;;;;12.84;61.66;100616.16;5012682;28;20113;-72
2021/10/28 04:38:45;;;;;;;3.22;2.92;;;;;;;12.78;62.10;100612.06;5013515;28;20385;-73
2021/10/28 04:41:14;;;;;;;3.22;2.92;;;;;;;12.80;62.13;100617.28;5012886;28;20029;-72
2021/10/28 04:43:50;;;;;;;3.90;2.73;;;;;;;12.90;62.17;100611.09;5013810;28;20032;-72
2021/10/28 04:46:24;;;;;;;5.75;3.50;;;;;;;12.90;61.78;100616.69;5012926;28;20284;-72
2021/10/28 04:48:50;;;;;;;3.53;3.17;;;;;;;12.88;61.77;100605.06;5016390;28;20120;-72
2021/10/28 04:51:21;;;;;;;3.70;3.22;;;;;;;12.97;61.68;100619.59;5016518;28;20429;-72
2021/10/28 04:53:46;;;;;;;12.73;3.70;;;;;;;12.83;62.49;100616.50;5016235;28;20117;-72
2021/10/28 04:56:13;;;;;;;3.97;3.40;;;;;;;12.91;62.35;100612.72;5016124;28;20117;-72
2021/10/28 04:58:43;;;;;;;3.28;3.00;;;;;;;12.81;61.81;100610.50;5015961;28;20034;-73
2021/10/28 05:01:34;;;;;;;3.22;2.85;;;;;;;12.75;62.86;100609.19;5017939;28;20030;-71
2021/10/28 05:04:03;;;;;;;3.58;3.28;;;;;;;12.80;62.98;100603.31;4980975;28;20044;-72
2021/10/28 05:06:33;;;;;;;6.88;3.50;;;;;;;12.84;61.89;100607.00;4980577;28;20053;-72
2021/10/28 05:08:59;;;;;;;4.15;3.60;;;;;;;12.84;61.70;100596.63;4979975;28;20058;-72
2021/10/28 05:11:27;;;;;;;4.28;3.70;;;;;;;12.85;61.52;100600.22;4980171;28;20030;-72
2021/10/28 05:13:56;;;;;;;6.53;3.65;;;;;;;12.84;62.20;100595.81;4980246;28;20042;-72
2021/10/28 05:16:22;;;;;;;5.70;4.30;;;;;;;12.80;62.21;100600.50;4980463;28;20030;-72
2021/10/28 05:18:53;;;;;;;5.88;4.03;;;;;;;12.83;62.19;100610.94;4980015;28;20022;-71
2021/10/28 05:21:24;;;;;;;8.95;4.28;;;;;;;12.77;62.57;100606.81;4979759;28;20030;-72
2021/10/28 05:23:53;;;;;;;6.68;4.22;;;;;;;12.83;62.99;100605.34;4980338;28;20057;-72
2021/10/28 05:26:19;;;;;;;9.20;4.47;;;;;;;12.78;62.33;100608.44;4980626;28;20035;-72
2021/10/28 05:28:48;;;;;;;7.82;4.38;;;;;;;12.84;61.90;100602.22;4980302;28;20041;-72
2021/10/28 05:31:14;;;;;;;5.75;4.97;;;;;;;12.91;61.36;100609.91;4980228;28;20026;-72
2021/10/28 05:33:41;;;;;;;7.82;5.00;;;;;;;12.84;61.97;100598.59;4979576;28;20049;-73
2021/10/28 05:36:09;;;;;;;7.07;4.85;;;;;;;12.81;62.17;100607.72;4979706;28;20034;-72
2021/10/28 05:38:39;;;;;;;5.53;4.93;;;;;;;12.88;62.12;100602.25;4979832;28;20050;-72
2021/10/28 05:41:11;;;;;;;7.70;5.40;;;;;;;13.09;61.73;100613.84;4979516;28;20109;-72
2021/10/28 05:43:39;;;;;;;5.47;4.75;;;;;;;13.51;60.17;100612.25;4979943;28;20461;-72
2021/10/28 05:46:07;;;;;;;5.93;4.78;;;;;;;13.97;58.83;100607.44;4979338;28;20026;-72
2021/10/28 05:48:32;;;;;;;10.38;6.43;;;;;;;14.53;57.60;100608.69;4980184;28;20035;-72
2021/10/28 05:51:01;;;;;;;7.03;5.07;;;;;;;15.03;56.51;100607.31;4980205;28;20121;-72
2021/10/28 05:53:28;;;;;;;5.68;4.38;;;;;;;15.42;54.33;100588.09;4979400;28;20117;-72
2021/10/28 05:55:54;;;;;;;6.82;4.75;;;;;;;16.02;52.83;100605.88;4978962;28;20034;-72
2021/10/28 05:58:25;;;;;;;7.35;4.85;;;;;;;16.51;51.46;100605.38;4978459;28;20031;-72
2021/10/28 06:00:54;;;;;;;4.82;4.32;;;;;;;17.00;51.19;100612.47;4978557;28;20030;-71
2021/10/28 06:03:22;;;;;;;4.80;4.30;;;;;;;17.52;49.02;100610.16;4994103;28;20053;-72
2021/10/28 06:05:49;;;;;;;5.63;4.25;;;;;;;17.98;47.43;100612.22;4998594;28;20109;-73
2021/10/28 06:08:17;;;;;;;7.35;4.05;;;;;;;18.36;46.41;100616.19;4997826;28;20029;-72
2021/10/28 06:10:46;;;;;;;5.00;4.30;;;;;;;18.84;45.39;100615.69;4997785;28;20025;-72
2021/10/28 06:13:16;;;;;;;5.65;4.13;;;;;;;19.17;44.67;100619.94;4998257;28;20460;-72
2021/10/28 06:15:43;;;;;;;5.18;3.30;;;;;;;19.45;43.26;100599.25;4997686;28;20036;-72
2021/10/28 06:18:24;;;;;;;5.95;3.97;;;;;;;19.84;42.97;100620.75;5015858;28;20052;-72
2021/10/28 06:20:54;;;;;;;4.35;3.42;;;;;;;20.19;41.74;100628.13;5015803;28;20032;-71
2021/10/28 06:23:22;;;;;;;3.45;3.15;;;;;;;20.55;41.25;100622.13;4997603;28;20034;-71
2021/10/28 06:25:51;;;;;;;3.35;3.00;;;;;;;20.81;40.58;100629.91;4998004;28;20372;-71
2021/10/28 06:28:16;;;;;;;3.75;2.45;;;;;;;21.08;40.03;100626.34;4997442;28;20060;-71
2021/10/28 06:30:48;;;;;;;2.90;2.65;;;;;;;21.49;39.22;100629.03;4997508;28;20026;-71
2021/10/28 06:33:24;;;;;;;3.92;3.30;;;;;;;21.76;37.81;100629.03;4997195;28;20037;-71
2021/10/28 06:35:50;;;;;;;6.30;3.40;;;;;;;22.40;36.99;100629.97;4994293;28;20057;-71
2021/10/28 06:38:21;;;;;;;4.65;3.58;;;;;;;22.21;37.49;100628.69;4996686;28;20057;-72
2021/10/28 06:40:53;;;;;;;6.15;3.47;;;;;;;22.09;37.28;100627.25;4997157;28;20480;-71
2021/10/28 06:43:21;;;;;;;5.13;3.33;;;;;;;22.02;37.13;100620.91;4996833;28;20108;-72
2021/10/28 06:45:53;;;;;;;5.22;3.03;;;;;;;22.06;37.41;100624.50;5013857;28;20480;-71
2021/10/28 06:48:21;;;;;;;4.13;2.80;;;;;;;22.10;37.51;100625.22;4996926;28;20074;-71
2021/10/28 06:50:55;;;;;;;5.70;2.95;;;;;;;22.34;36.61;100621.19;4997035;28;20034;-71
2021/10/28 06:53:25;;;;;;;4.47;3.03;;;;;;;22.40;36.05;100619.44;4996931;28;20096;-71
2021/10/28 07:04:09;;;;;;;3.45;2.78;;;;;;;22.49;35.46;100622.50;5014945;28;20084;-71
2021/10/28 07:06:39;;;;;;;3.70;3.15;;;;;;;22.33;35.54;100622.41;4992233;28;20022;-72
2021/10/28 07:09:20;;;;;;;8.85;3.47;;;;;;;22.52;35.54;100625.69;4996946;28;20037;-71
2021/10/28 07:12:03;;;;;;;3.97;3.03;;;;;;;22.76;35.08;100630.09;4996325;28;20026;-71
2021/10/28 07:14:36;;;;;;;5.25;2.78;;;;;;;22.79;35.32;100620.69;5014049;28;20037;-72
2021/10/28 07:35:39;;;;;;;4.82;3.10;;;;;;;22.82;36.18;100622.69;5013591;28;20030;-71
2021/10/28 08:05:37;;;;;;;4.65;3.35;;;;;;;22.90;34.90;100618.47;5013445;28;20037;-71
2021/10/28 08:13:56;;;;;;;5.20;2.50;;;;;;;22.28;35.98;100619.28;5013933;28;20483;-71
2021/10/28 08:16:57;;;;;;;3.67;2.47;;;;;;;22.60;35.72;100616.63;4995883;28;20030;-70
2021/10/28 08:21:55;;;;;;;5.63;3.10;;;;;;;21.95;36.45;100616.97;5015628;28;20037;-71
2021/10/28 08:29:50;;;;;;;2.88;2.63;;;;;;;21.93;36.46;100630.75;5017480;28;20395;-72
2021/10/28 08:32:19;;;;;;;4.03;3.53;;;;;;;21.61;37.01;100631.25;4999764;28;20034;-72
2021/10/28 08:34:45;;;;;;;4.32;3.22;;;;;;;21.98;35.67;100620.97;4999716;28;20141;-70
2021/10/28 08:37:16;;;;;;;3.28;2.55;;;;;;;22.03;35.89;100622.50;5017928;28;20022;-71
2021/10/28 08:39:52;;;;;;;5.20;3.28;;;;;;;23.13;34.16;100631.00;4999598;28;20064;-71
2021/10/28 08:42:23;;;;;;;4.95;3.42;;;;;;;23.40;33.85;100633.63;4999605;28;20100;-71
2021/10/28 08:44:56;;;;;;;5.68;3.00;;;;;;;23.68;33.38;100632.19;4999633;28;20127;-72
2021/10/28 08:47:24;;;;;;;3.70;3.30;;;;;;;23.34;32.98;100629.72;5017239;28;20025;-72
2021/10/28 08:52:40;;;;;;;5.47;3.38;;;;;;;23.21;33.62;100643.78;5017014;28;20057;-72
2021/10/28 08:55:32;;;;;;;8.63;3.30;;;;;;;22.99;33.74;100644.22;5009281;28;20096;-73
2021/10/28 09:29:41;;;;;;;9.82;4.03;;;;;;;22.28;34.10;100639.13;5016492;28;20033;-71
2021/10/28 09:46:39;;;;;;;4.28;3.40;;;;;;;22.77;33.95;100654.38;5016076;28;20042;-69
2021/10/28 09:51:48;;;;;;;5.05;4.00;;;;;;;22.44;34.45;100642.84;5016027;28;20092;-69
2021/10/28 10:00:14;;;;;;;5.25;3.72;;;;;;;23.51;32.50;100646.34;5015950;28;20393;-68
2021/10/28 10:03:08;;;;;;;3.38;3.13;;;;;;;23.83;31.94;100650.50;4997655;28;20060;-70
2021/10/28 10:05:29;;;;;;;5.97;3.80;;;;;;;23.70;31.91;100647.56;5015076;28;20026;-69
2021/10/28 10:07:55;;;;;;;6.53;3.50;;;;;;;22.98;32.24;100653.97;4998118;28;20030;-68
2021/10/28 10:10:27;;;;;;;6.93;4.05;;;;;;;22.74;32.40;100649.56;4998065;28;20049;-68
2021/10/28 10:12:56;;;;;;;4.57;3.53;;;;;;;22.28;32.91;100645.59;4998045;28;20047;-70
2021/10/28 10:15:23;;;;;;;4.10;3.53;;;;;;;22.66;33.63;100642.44;4998535;28;20453;-69
2021/10/28 10:17:55;;;;;;;4.90;3.80;;;;;;;22.59;33.12;100645.44;4981909;28;20105;-69
2021/10/28 10:20:34;;;;;;;5.22;4.18;;;;;;;22.09;33.93;100641.41;4997741;28;20065;-69
2021/10/28 11:15:52;;;;;;;7.75;3.10;;;;;;;22.31;32.28;100596.53;5014554;28;20033;-69
2021/10/28 11:21:16;;;;;;;3.83;3.00;;;;;;;22.44;32.16;100560.63;5014948;28;20049;-69
2021/10/28 12:44:53;;;;;;;3.50;2.60;;;;;;;23.17;30.66;100478.41;5013582;28;20168;-69
2021/10/28 12:50:44;;;;;;;4.70;2.63;;;;;;;23.46;30.13;100479.31;4998157;28;20037;-69
2021/10/28 13:02:29;;;;;;;3.97;2.90;;;;;;;23.00;31.25;100457.75;5012940;28;20551;-70
2021/10/28 13:38:07;;;;;;;4.47;2.97;;;;;;;23.44;33.49;100430.72;5016248;28;20440;-71
2021/10/28 13:52:31;;;;;;;4.47;3.45;;;;;;;23.59;33.25;100424.63;4936259;29;20092;-71
2021/10/28 13:55:20;;;;;;;3.83;3.35;;;;;;;23.26;34.85;100424.69;4935879;29;20036;-71
2021/10/28 14:14:43;;;;;;;11.73;3.83;;;;;;;23.66;34.08;100415.97;5016202;28;20050;-70
2021/10/28 14:15:03;;;;;;;5.03;3.58;;;;;;;22.98;35.34;100409.16;5016107;28;20542;-69
2021/10/28 14:18:40;;;;;;;5.43;3.03;;;;;;;22.89;35.75;100415.44;5015384;28;20034;-70
2021/10/28 14:37:04;;;;;;;4.03;2.85;;;;;;;22.75;36.46;100407.25;4981602;28;20068;-69
2021/10/28 15:28:41;;;;;;;3.80;3.13;;;;;;;20.71;42.97;100418.78;4994245;28;20045;-69
2021/10/28 15:36:56;;;;;;;3.70;3.10;;;;;;;20.39;44.13;100431.28;4994936;28;20101;-69
2021/10/28 15:56:02;;;;;;;7.03;4.65;;;;;;;19.44;47.92;100435.97;4994634;28;20100;-70
2021/10/28 16:23:30;;;;;;;11.18;9.70;;;;;;;18.08;50.10;100439.66;4994270;28;20104;-70
2021/10/28 16:25:56;;;;;;;12.65;9.65;;;;;;;18.02;50.60;100444.13;4976230;28;20473;-70
2021/10/28 16:28:28;;;;;;;13.73;9.05;;;;;;;17.98;50.64;100437.69;4976097;28;20082;-70
2021/10/28 16:30:54;;;;;;;8.88;7.97;;;;;;;17.91;51.23;100438.53;4976749;28;20081;-69
2021/10/28 16:33:21;;;;;;;7.43;6.65;;;;;;;17.82;51.50;100445.78;4976383;28;20408;-69
2021/10/28 16:35:47;;;;;;;7.57;6.45;;;;;;;17.71;51.30;100440.94;4976528;28;20030;-69
2021/10/28 16:38:16;;;;;;;7.47;6.03;;;;;;;17.64;51.79;100435.34;4976108;28;20101;-69
2021/10/28 16:40:48;;;;;;;8.15;6.10;;;;;;;17.61;51.77;100435.34;4976200;28;20110;-69
2021/10/28 16:43:13;;;;;;;6.18;5.47;;;;;;;17.53;52.07;100440.19;4978846;28;20030;-68
2021/10/28 16:45:39;;;;;;;8.30;5.88;;;;;;;17.35;52.16;100433.75;4980372;28;20437;-69
2021/10/28 16:48:06;;;;;;;7.57;5.50;;;;;;;17.31;52.11;100430.13;4979943;28;20388;-69
2021/10/28 16:50:33;;;;;;;11.35;7.82;;;;;;;17.27;52.01;100433.78;4979822;28;20026;-69
2021/10/28 16:52:59;;;;;;;14.57;9.68;;;;;;;17.21;52.55;100445.84;4980153;28;20526;-69
2021/10/28 16:55:27;;;;;;;10.73;9.13;;;;;;;17.14;52.25;100441.00;4979871;28;20117;-69
2021/10/28 16:57:56;;;;;;;9.90;7.60;;;;;;;17.02;52.78;100441.41;4980023;28;20033;-70
2021/10/28 17:00:24;;;;;;;10.27;7.13;;;;;;;17.01;52.35;100443.41;4979606;28;20101;-69
2021/10/28 17:02:53;;;;;;;8.98;6.97;;;;;;;16.94;52.97;100437.78;4988824;28;20153;-69
2021/10/28 17:05:21;;;;;;;10.00;6.57;;;;;;;16.89;52.69;100448.63;4999302;28;20530;-70
2021/10/28 17:07:50;;;;;;;9.45;7.25;;;;;;;16.87;53.09;100451.00;4999083;28;20037;-69
2021/10/28 17:10:15;;;;;;;11.23;7.45;;;;;;;16.84;52.99;100449.81;4999236;28;20499;-69
2021/10/28 17:12:41;;;;;;;11.93;7.85;;;;;;;16.83;53.19;100450.19;4998913;28;20034;-70
2021/10/28 17:15:08;;;;;;;10.43;8.57;;;;;;;16.79;53.70;100455.03;4998882;28;20034;-69
2021/10/28 17:17:36;;;;;;;13.40;9.88;;;;;;;16.73;54.26;100455.41;4998953;28;20129;-69
2021/10/28 17:20:07;;;;;;;19.17;12.15;;;;;;;16.72;54.33;100451.00;4999115;28;20037;-69
2021/10/28 17:22:38;;;;;;;18.45;14.27;;;;;;;16.65;54.27;100448.13;5016225;28;20030;-69
2021/10/28 17:25:07;;;;;;;16.70;12.07;;;;;;;16.62;54.03;100448.94;4998909;28;20490;-69
2021/10/28 17:27:36;;;;;;;13.00;11.40;;;;;;;16.51;54.12;100448.09;4999017;28;20508;-69
2021/10/28 17:30:07;;;;;;;14.20;10.13;;;;;;;16.46;54.61;100442.88;5015032;28;20029;-70
2021/10/28 17:32:35;;;;;;;18.73;11.75;;;;;;;16.42;54.98;100442.06;4998461;28;20416;-70
2021/10/28 17:35:04;;;;;;;16.13;12.85;;;;;;;16.36;54.96;100447.25;5014806;28;20030;-70
2021/10/28 17:37:33;;;;;;;21.55;13.75;;;;;;;16.39;55.12;100445.66;4998508;28;20040;-70
2021/10/28 17:40:01;;;;;;;18.70;15.45;;;;;;;16.37;55.34;100451.66;4998380;28;20522;-71
2021/10/28 17:42:30;;;;;;;16.15;12.82;;;;;;;16.29;55.66;100452.81;4998820;28;20026;-70
2021/10/28 17:45:02;;;;;;;12.45;10.50;;;;;;;16.26;54.76;100456.44;5015086;28;20120;-70
2021/10/28 17:47:33;;;;;;;16.70;10.65;;;;;;;16.25;55.69;100446.41;4998365;28;20092;-69
2021/10/28 17:49:59;;;;;;;14.40;10.30;;;;;;;16.34;55.04;100455.25;4998270;28;20030;-70
2021/10/28 17:52:30;;;;;;;10.52;9.43;;;;;;;16.37;54.77;100450.88;4998510;28;20025;-69
2021/10/28 17:55:01;;;;;;;12.50;8.18;;;;;;;16.39;54.38;100454.06;4997736;28;20101;-69
2021/10/28 17:57:30;;;;;;;9.80;7.15;;;;;;;16.26;54.50;100441.59;4998278;28;20034;-71
2021/10/28 17:59:59;;;;;;;8.10;6.47;;;;;;;16.37;54.46;100448.06;4998781;28;20022;-70
2021/10/28 18:02:28;;;;;;;8.55;6.75;;;;;;;16.34;54.84;100451.66;4998141;28;20052;-70
2021/10/28 18:04:56;;;;;;;7.50;6.30;;;;;;;16.21;56.44;100452.00;4997996;28;20022;-71
2021/10/28 18:07:28;;;;;;;7.68;6.78;;;;;;;16.24;55.89;100467.25;5015282;28;20026;-72
2021/10/28 18:10:00;;;;;;;9.55;7.18;;;;;;;16.17;56.54;100456.78;4997974;28;20026;-72
2021/10/28 18:12:32;;;;;;;10.60;7.40;;;;;;;16.09;57.50;100466.41;4998255;28;20037;-73
2021/10/28 18:15:01;;;;;;;7.97;7.13;;;;;;;16.10;56.93;100467.19;4998029;28;20064;-70
2021/10/28 18:17:32;;;;;;;10.18;6.55;;;;;;;16.06;57.18;100460.75;5015272;28;20388;-70
2021/10/28 18:20:04;;;;;;;9.05;8.15;;;;;;;16.13;57.08;100464.38;4997640;28;20030;-71
2021/10/28 18:22:30;;;;;;;7.65;6.82;;;;;;;16.13;57.35;100466.41;4997729;28;20048;-70
2021/10/28 18:25:01;;;;;;;10.52;7.13;;;;;;;16.10;57.17;100459.59;4997657;28;20472;-70
2021/10/28 18:27:33;;;;;;;9.05;7.13;;;;;;;16.17;56.66;100468.03;4997915;28;20472;-71
2021/10/28 18:30:02;;;;;;;10.77;6.88;;;;;;;16.15;56.99;100453.59;4997731;28;20022;-70
2021/10/28 18:32:28;;;;;;;7.15;6.47;;;;;;;16.22;56.15;100459.22;4997608;28;20037;-70
2021/10/28 18:34:59;;;;;;;7.50;5.97;;;;;;;16.11;57.21;100461.19;4997322;28;20037;-71
2021/10/28 18:37:25;;;;;;;8.40;7.35;;;;;;;16.13;56.65;100455.16;4997329;28;20219;-70
2021/10/28 18:39:51;;;;;;;11.75;7.07;;;;;;;16.08;57.47;100458.34;4997931;28;20054;-70
2021/10/28 18:42:18;;;;;;;9.50;7.65;;;;;;;16.08;56.72;100461.97;4997377;28;20053;-71
2021/10/28 18:44:47;;;;;;;9.60;7.88;;;;;;;16.02;56.99;100455.13;4998019;28;20584;-70
2021/10/28 18:47:15;;;;;;;12.45;8.40;;;;;;;15.98;57.28;100459.94;4997702;28;20041;-71
2021/10/28 18:49:41;;;;;;;8.82;7.25;;;;;;;15.94;57.93;100459.91;5015136;28;20033;-70
2021/10/28 18:52:07;;;;;;;10.07;7.53;;;;;;;15.94;57.12;100465.50;4997358;28;20026;-70
2021/10/28 18:54:32;;;;;;;9.68;8.00;;;;;;;16.06;56.18;100464.38;4997297;28;20041;-70
2021/10/28 18:56:58;;;;;;;9.02;7.68;;;;;;;15.95;57.17;100466.31;4997067;28;20041;-70
2021/10/28 18:59:24;;;;;;;8.80;7.65;;;;;;;15.95;56.09;100460.69;4996975;28;20392;-70
2021/10/28 19:01:51;;;;;;;9.70;7.70;;;;;;;15.88;56.17;100466.28;4996869;28;20083;-72
2021/10/28 19:04:17;;;;;;;9.00;7.43;;;;;;;15.83;56.84;100463.84;5014954;28;20018;-71
2021/10/28 19:06:44;;;;;;;14.63;7.90;;;;;;;15.85;55.96;100473.47;4995928;28;20084;-71
2021/10/28 19:09:11;;;;;;;9.10;8.20;;;;;;;15.86;55.47;100463.84;4997155;28;20029;-71
2021/10/28 19:11:37;;;;;;;10.90;7.68;;;;;;;15.82;56.02;100473.44;4996941;28;20057;-70
2021/10/28 19:14:06;;;;;;;11.30;7.32;;;;;;;15.68;56.51;100472.16;4996821;28;20088;-70
2021/10/28 19:16:32;;;;;;;8.48;7.07;;;;;;;15.71;55.76;100468.59;4997137;28;20376;-72
2021/10/28 19:19:00;;;;;;;11.23;7.47;;;;;;;15.72;55.62;100458.19;4980949;28;20121;-70
2021/10/28 19:21:26;;;;;;;9.02;7.53;;;;;;;15.68;55.46;100469.38;4997070;28;20383;-70
2021/10/28 19:23:51;;;;;;;9.60;7.30;;;;;;;15.48;56.85;100459.56;4997083;28;20109;-71
2021/10/28 19:26:20;;;;;;;10.60;8.82;;;;;;;15.48;56.65;100473.59;4996603;28;20422;-70
2021/10/28 19:28:45;;;;;;;9.85;8.05;;;;;;;15.49;56.08;100465.97;4996496;28;20034;-70
2021/10/28 19:31:16;;;;;;;11.25;8.02;;;;;;;15.53;55.98;100478.03;4996786;28;20029;-70
2021/10/28 19:33:54;;;;;;;12.02;7.88;;;;;;;15.42;56.27;100472.34;4996925;28;20025;-71
2021/10/28 19:36:29;;;;;;;8.10;7.30;;;;;;;15.36;56.17;100479.50;4995237;28;20030;-71
2021/10/28 19:39:29;;;;;;;8.38;7.18;;;;;;;15.26;56.67;100469.00;4996669;28;20080;-71
2021/10/28 19:47:16;;;;;;;8.50;6.90;;;;;;;15.14;57.43;100484.94;5014175;28;20464;-70
2021/10/28 19:49:44;;;;;;;8.20;7.20;;;;;;;15.16;57.30;100488.16;4996799;28;20050;-70
2021/10/28 19:52:12;;;;;;;9.05;7.70;;;;;;;15.14;56.78;100482.13;4996220;28;20034;-69
2021/10/28 19:54:44;;;;;;;7.95;6.82;;;;;;;15.19;56.63;100487.38;4996574;28;20033;-70
2021/10/28 19:57:17;;;;;;;7.97;6.75;;;;;;;15.13;57.11;100480.53;4996972;28;20120;-70
2021/10/28 20:00:01;;;;;;;;;;;;;;;15.01;57.94;100482.78;4997471;28;20036;-71
2021/10/28 20:03:17;;;;;;;7.18;6.10;;;;;;;15.07;57.88;100484.84;4995986;28;19940;-72
2021/10/28 20:21:20;;;;;;;10.27;7.90;;;;;;;14.91;58.14;100484.28;5013925;28;20176;-70
2021/10/28 20:23:45;;;;;;;9.30;7.35;;;;;;;14.87;58.22;100480.66;4996060;28;20029;-70
2021/10/28 20:26:11;;;;;;;11.05;7.65;;;;;;;14.87;58.19;100481.47;4996329;28;20376;-71
2021/10/28 20:28:42;;;;;;;12.80;7.13;;;;;;;14.82;58.13;100478.22;4996167;28;20026;-70
2021/10/28 20:31:17;;;;;;;7.68;6.82;;;;;;;14.82;59.69;100478.22;4995795;28;20041;-70
2021/10/28 20:33:48;;;;;;;8.23;6.88;;;;;;;14.80;59.67;100480.56;4995809;28;20120;-72
2021/10/28 20:38:52;;;;;;;11.60;8.00;;;;;;;14.87;59.38;100483.47;5013514;28;20511;-69
2021/10/28 20:41:21;;;;;;;8.05;6.65;;;;;;;14.82;58.72;100492.22;4979950;28;20073;-70